Ana Sayfa
METAR-TAF:

METAR-TAF

Havaalanları :

Kunming, Çin

Enlem: 25-01N, Boylam: 102-41E, yükseklik: 1892 m

Güncel hava durumu gözlemi

Rapor saat 12:00 UTC de 1 saat ve 13 dakika önce yapıldı.
Rüzgar güneybatıdan 16 kt
Sıcaklık 12°C
Nem 88%
Basınç 1026 hPa
Görüş mesafesi 10 km veya daha fazla
2600 ft yükseklikte parçalı bulutlu
4300 ft yükseklikte parçalı çok bulutlu

METAR: ZPPP 141200Z 22008MPS 9999 SCT026 BKN043 12/10 Q1026 NOSIG

Saat: 21:13 (13:13 UTC)

Tahmin

Rapor saat 07:14 UTC de 5 saat ve 59 dakika önce yapıldı.
Ayın 14'si saat 12 UTC'den ayın 15'si saat 12 UTC'ye kadar geçerli Tahmin
Rüzgar güneybatıdan 12 kt
Görüş mesafesi 10 km veya daha fazla
2600 ft yükseklikte parçalı bulutlu
4000 ft yükseklikte parçalı çok bulutlu

TAF: ZPPP 140714Z 1412/1512 23006MPS 9999 SCT026 BKN040 TX16/1508Z TN07/1423Z

4.000'den fazla havaalanı için hava durumu gözlemleri ve tahminleri (METAR ve TAF raporları).

Kullanılabilir istasyonlar harita üzerinde sarı ve kırmızı noktalarla gösterilir.

İstasyonun adını görmek için fareyi noktanın üzerinde gezdirin.

Sonrasında hava gözlem ve tahminlerini görmek için tıklayın.

Haritayı değiştirmek için: yaklaştırmak için siyah artı işaretli yeşil düğmeye ve uzaklaştırmak için de eksi işaretli düğmeye hızla tıklayın; bitişik haritalar için yeşil okları kullanın.


METAR-TAF: